sensor_id;sensor_type;location;lat;lon;timestamp;pressure;altitude;pressure_sealevel;temperature;humidity
75913;BME280;64592;52.168;21.040;2023-02-21T00:02:11;99027.50;;;6.78;88.65
75913;BME280;64592;52.168;21.040;2023-02-21T00:07:32;99016.81;;;6.78;88.09
75913;BME280;64592;52.168;21.040;2023-02-21T00:12:51;99017.78;;;6.77;87.44
75913;BME280;64592;52.168;21.040;2023-02-21T00:18:10;99029.69;;;6.84;85.63
75913;BME280;64592;52.168;21.040;2023-02-21T00:23:33;99030.16;;;6.89;84.38
75913;BME280;64592;52.168;21.040;2023-02-21T00:28:53;99032.72;;;6.91;84.29
75913;BME280;64592;52.168;21.040;2023-02-21T00:34:11;99032.34;;;6.95;83.01
75913;BME280;64592;52.168;21.040;2023-02-21T00:39:32;99010.66;;;6.98;81.98
75913;BME280;64592;52.168;21.040;2023-02-21T00:44:51;99014.19;;;6.99;82.42
75913;BME280;64592;52.168;21.040;2023-02-21T00:50:10;99038.41;;;6.97;82.30
75913;BME280;64592;52.168;21.040;2023-02-21T00:55:30;99022.72;;;6.93;82.38
75913;BME280;64592;52.168;21.040;2023-02-21T01:00:49;99026.72;;;6.98;81.93
75913;BME280;64592;52.168;21.040;2023-02-21T01:06:10;99017.25;;;6.94;81.00
75913;BME280;64592;52.168;21.040;2023-02-21T01:11:31;99021.38;;;6.98;79.94
75913;BME280;64592;52.168;21.040;2023-02-21T01:16:51;99020.66;;;6.96;79.15
75913;BME280;64592;52.168;21.040;2023-02-21T01:22:10;99010.78;;;6.97;78.64
75913;BME280;64592;52.168;21.040;2023-02-21T01:27:31;99010.31;;;6.92;78.45
75913;BME280;64592;52.168;21.040;2023-02-21T01:32:50;99013.09;;;6.90;78.06
75913;BME280;64592;52.168;21.040;2023-02-21T01:38:09;99007.75;;;6.90;77.89
75913;BME280;64592;52.168;21.040;2023-02-21T01:43:29;98998.16;;;6.88;76.96
75913;BME280;64592;52.168;21.040;2023-02-21T01:48:50;99000.56;;;6.91;77.07
75913;BME280;64592;52.168;21.040;2023-02-21T01:54:11;99005.81;;;6.92;76.42
75913;BME280;64592;52.168;21.040;2023-02-21T01:59:33;98997.03;;;6.90;75.57
75913;BME280;64592;52.168;21.040;2023-02-21T02:04:52;99005.81;;;6.92;75.49
75913;BME280;64592;52.168;21.040;2023-02-21T02:10:13;99005.56;;;6.95;75.69
75913;BME280;64592;52.168;21.040;2023-02-21T02:15:51;98997.19;;;6.89;76.85
75913;BME280;64592;52.168;21.040;2023-02-21T02:21:13;99010.09;;;6.84;78.10
75913;BME280;64592;52.168;21.040;2023-02-21T02:32:07;99010.19;;;6.82;75.54
75913;BME280;64592;52.168;21.040;2023-02-21T02:37:19;99004.84;;;6.82;74.45
75913;BME280;64592;52.168;21.040;2023-02-21T02:42:39;99008.53;;;6.81;72.08
75913;BME280;64592;52.168;21.040;2023-02-21T02:47:50;98996.81;;;6.82;71.20
75913;BME280;64592;52.168;21.040;2023-02-21T02:53:00;99008.78;;;6.78;70.36
75913;BME280;64592;52.168;21.040;2023-02-21T02:58:03;98996.34;;;6.77;71.24
75913;BME280;64592;52.168;21.040;2023-02-21T03:03:19;99004.50;;;6.76;72.61
75913;BME280;64592;52.168;21.040;2023-02-21T03:08:40;98989.56;;;6.73;73.03
75913;BME280;64592;52.168;21.040;2023-02-21T03:13:47;98987.50;;;6.66;72.33
75913;BME280;64592;52.168;21.040;2023-02-21T03:18:53;98991.28;;;6.63;72.07
75913;BME280;64592;52.168;21.040;2023-02-21T03:24:00;98976.19;;;6.62;70.53
75913;BME280;64592;52.168;21.040;2023-02-21T03:29:03;98986.16;;;6.60;71.00
75913;BME280;64592;52.168;21.040;2023-02-21T03:34:05;98997.88;;;6.59;70.29
75913;BME280;64592;52.168;21.040;2023-02-21T03:39:08;98972.75;;;6.60;68.85
75913;BME280;64592;52.168;21.040;2023-02-21T03:44:10;98983.47;;;6.60;68.65
75913;BME280;64592;52.168;21.040;2023-02-21T03:49:11;98986.41;;;6.57;68.51
75913;BME280;64592;52.168;21.040;2023-02-21T03:54:14;98983.84;;;6.55;67.67
75913;BME280;64592;52.168;21.040;2023-02-21T03:59:16;98989.34;;;6.54;66.49
75913;BME280;64592;52.168;21.040;2023-02-21T04:04:18;98992.97;;;6.53;66.28
75913;BME280;64592;52.168;21.040;2023-02-21T04:09:21;98987.63;;;6.53;64.55
75913;BME280;64592;52.168;21.040;2023-02-21T04:14:23;99005.16;;;6.46;64.88
75913;BME280;64592;52.168;21.040;2023-02-21T04:19:24;99012.72;;;6.41;64.31
75913;BME280;64592;52.168;21.040;2023-02-21T04:24:27;99005.19;;;6.35;65.28
75913;BME280;64592;52.168;21.040;2023-02-21T04:29:29;98998.13;;;6.34;66.27
75913;BME280;64592;52.168;21.040;2023-02-21T04:34:31;99002.25;;;6.27;65.49
75913;BME280;64592;52.168;21.040;2023-02-21T04:39:34;99015.16;;;6.21;65.45
75913;BME280;64592;52.168;21.040;2023-02-21T04:44:37;99019.03;;;6.17;65.57
75913;BME280;64592;52.168;21.040;2023-02-21T04:49:39;99030.13;;;6.13;65.31
75913;BME280;64592;52.168;21.040;2023-02-21T04:54:42;99039.22;;;6.10;65.19
75913;BME280;64592;52.168;21.040;2023-02-21T04:59:43;99028.41;;;6.12;64.26
75913;BME280;64592;52.168;21.040;2023-02-21T05:04:45;99029.38;;;6.11;64.85
75913;BME280;64592;52.168;21.040;2023-02-21T05:09:48;99034.72;;;6.11;66.26
75913;BME280;64592;52.168;21.040;2023-02-21T05:14:50;99046.38;;;6.10;65.53
75913;BME280;64592;52.168;21.040;2023-02-21T05:19:52;99024.88;;;6.11;64.76
75913;BME280;64592;52.168;21.040;2023-02-21T05:24:55;99039.00;;;6.13;65.89
75913;BME280;64592;52.168;21.040;2023-02-21T05:29:57;99041.66;;;6.13;64.68
75913;BME280;64592;52.168;21.040;2023-02-21T05:34:59;99033.38;;;6.16;64.63
75913;BME280;64592;52.168;21.040;2023-02-21T05:40:02;99051.03;;;6.19;64.88
75913;BME280;64592;52.168;21.040;2023-02-21T05:45:05;99041.28;;;6.18;65.77
75913;BME280;64592;52.168;21.040;2023-02-21T05:50:08;99054.78;;;6.16;65.95
75913;BME280;64592;52.168;21.040;2023-02-21T05:55:12;99051.41;;;6.14;67.30
75913;BME280;64592;52.168;21.040;2023-02-21T06:00:15;99057.84;;;6.12;67.54
75913;BME280;64592;52.168;21.040;2023-02-21T06:05:18;99048.00;;;6.12;65.67
75913;BME280;64592;52.168;21.040;2023-02-21T06:10:21;99052.47;;;6.12;65.95
75913;BME280;64592;52.168;21.040;2023-02-21T06:15:23;99066.72;;;6.12;65.05
75913;BME280;64592;52.168;21.040;2023-02-21T06:20:25;99084.59;;;6.12;65.69
75913;BME280;64592;52.168;21.040;2023-02-21T06:25:28;99068.53;;;6.12;65.59
75913;BME280;64592;52.168;21.040;2023-02-21T06:30:29;99072.19;;;6.11;65.00
75913;BME280;64592;52.168;21.040;2023-02-21T06:35:31;99078.38;;;6.11;64.62
75913;BME280;64592;52.168;21.040;2023-02-21T06:40:34;99092.72;;;6.10;65.05
75913;BME280;64592;52.168;21.040;2023-02-21T06:45:36;99088.59;;;6.17;64.10
75913;BME280;64592;52.168;21.040;2023-02-21T06:50:38;99096.88;;;6.14;63.98
75913;BME280;64592;52.168;21.040;2023-02-21T06:55:41;99108.44;;;6.15;65.29
75913;BME280;64592;52.168;21.040;2023-02-21T07:00:42;99103.19;;;6.13;65.65
75913;BME280;64592;52.168;21.040;2023-02-21T07:05:44;99103.31;;;6.12;65.81
75913;BME280;64592;52.168;21.040;2023-02-21T07:10:47;99128.84;;;6.16;67.92
75913;BME280;64592;52.168;21.040;2023-02-21T07:15:49;99132.09;;;6.08;69.00
75913;BME280;64592;52.168;21.040;2023-02-21T07:20:51;99132.63;;;6.13;68.29
75913;BME280;64592;52.168;21.040;2023-02-21T07:25:54;99159.38;;;6.13;68.19
75913;BME280;64592;52.168;21.040;2023-02-21T07:30:56;99164.72;;;6.13;68.02
75913;BME280;64592;52.168;21.040;2023-02-21T07:35:57;99201.34;;;6.13;68.80
75913;BME280;64592;52.168;21.040;2023-02-21T07:41:02;99207.66;;;6.12;69.50
75913;BME280;64592;52.168;21.040;2023-02-21T07:46:04;99205.94;;;6.11;68.91
75913;BME280;64592;52.168;21.040;2023-02-21T07:51:09;99222.84;;;6.11;69.56
75913;BME280;64592;52.168;21.040;2023-02-21T07:56:12;99219.22;;;6.12;69.09
75913;BME280;64592;52.168;21.040;2023-02-21T08:01:14;99241.69;;;6.10;69.95
75913;BME280;64592;52.168;21.040;2023-02-21T08:06:16;99230.38;;;6.06;69.45
75913;BME280;64592;52.168;21.040;2023-02-21T08:11:20;99239.13;;;6.08;69.48
75913;BME280;64592;52.168;21.040;2023-02-21T08:16:22;99260.31;;;6.11;69.09
75913;BME280;64592;52.168;21.040;2023-02-21T08:21:24;99242.31;;;6.13;70.23
75913;BME280;64592;52.168;21.040;2023-02-21T08:26:27;99253.03;;;6.13;70.83
75913;BME280;64592;52.168;21.040;2023-02-21T08:31:29;99264.69;;;6.12;71.17
75913;BME280;64592;52.168;21.040;2023-02-21T08:36:32;99279.78;;;6.13;70.79
75913;BME280;64592;52.168;21.040;2023-02-21T08:41:37;99281.50;;;6.14;71.04
75913;BME280;64592;52.168;21.040;2023-02-21T08:46:39;99279.41;;;6.18;70.71
75913;BME280;64592;52.168;21.040;2023-02-21T08:51:41;99296.34;;;6.18;71.35
75913;BME280;64592;52.168;21.040;2023-02-21T08:56:44;99300.72;;;6.19;70.55
75913;BME280;64592;52.168;21.040;2023-02-21T09:01:45;99314.09;;;6.19;70.96
75913;BME280;64592;52.168;21.040;2023-02-21T09:06:49;99318.59;;;6.19;71.22
75913;BME280;64592;52.168;21.040;2023-02-21T09:11:52;99328.91;;;6.12;71.72
75913;BME280;64592;52.168;21.040;2023-02-21T09:16:54;99321.09;;;6.09;72.65
75913;BME280;64592;52.168;21.040;2023-02-21T09:21:56;99331.78;;;6.09;73.23
75913;BME280;64592;52.168;21.040;2023-02-21T09:26:59;99343.69;;;6.05;74.35
75913;BME280;64592;52.168;21.040;2023-02-21T09:32:03;99354.41;;;6.05;74.10
75913;BME280;64592;52.168;21.040;2023-02-21T09:37:05;99356.63;;;6.11;75.12
75913;BME280;64592;52.168;21.040;2023-02-21T09:42:09;99364.94;;;6.19;74.61
75913;BME280;64592;52.168;21.040;2023-02-21T09:47:20;99366.41;;;6.23;74.32
75913;BME280;64592;52.168;21.040;2023-02-21T09:52:29;99386.84;;;6.24;74.72
75913;BME280;64592;52.168;21.040;2023-02-21T09:57:33;99384.56;;;6.31;74.37
75913;BME280;64592;52.168;21.040;2023-02-21T10:02:42;99400.78;;;6.30;75.10
75913;BME280;64592;52.168;21.040;2023-02-21T10:07:52;99420.53;;;6.40;75.33
75913;BME280;64592;52.168;21.040;2023-02-21T10:13:06;99405.50;;;6.50;74.65
75913;BME280;64592;52.168;21.040;2023-02-21T10:18:21;99412.31;;;6.54;74.17
75913;BME280;64592;52.168;21.040;2023-02-21T10:23:29;99413.81;;;6.58;74.82
75913;BME280;64592;52.168;21.040;2023-02-21T10:28:34;99408.41;;;6.71;73.96
75913;BME280;64592;52.168;21.040;2023-02-21T10:33:37;99428.50;;;6.76;73.75
75913;BME280;64592;52.168;21.040;2023-02-21T10:38:42;99429.53;;;6.86;73.04
75913;BME280;64592;52.168;21.040;2023-02-21T10:43:52;99417.75;;;6.89;72.70
75913;BME280;64592;52.168;21.040;2023-02-21T10:49:22;99403.78;;;6.96;72.24
75913;BME280;64592;52.168;21.040;2023-02-21T10:54:28;99427.53;;;7.01;71.48
75913;BME280;64592;52.168;21.040;2023-02-21T10:59:33;99440.84;;;7.14;71.19
75913;BME280;64592;52.168;21.040;2023-02-21T11:04:35;99435.84;;;7.20;70.59
75913;BME280;64592;52.168;21.040;2023-02-21T11:09:41;99457.19;;;7.22;70.51
75913;BME280;64592;52.168;21.040;2023-02-21T11:15:03;99450.13;;;7.21;69.78
75913;BME280;64592;52.168;21.040;2023-02-21T11:20:16;99445.38;;;7.24;69.19
75913;BME280;64592;52.168;21.040;2023-02-21T11:25:22;99460.38;;;7.27;68.81
75913;BME280;64592;52.168;21.040;2023-02-21T11:30:26;99485.72;;;7.34;69.16
75913;BME280;64592;52.168;21.040;2023-02-21T11:35:30;99456.00;;;7.37;67.41
75913;BME280;64592;52.168;21.040;2023-02-21T11:40:41;99475.31;;;7.53;67.05
75913;BME280;64592;52.168;21.040;2023-02-21T11:45:52;99479.25;;;7.60;67.31
75913;BME280;64592;52.168;21.040;2023-02-21T11:51:03;99478.00;;;7.64;66.75
75913;BME280;64592;52.168;21.040;2023-02-21T11:56:15;99483.38;;;7.64;66.43
75913;BME280;64592;52.168;21.040;2023-02-21T12:01:24;99472.78;;;7.63;67.02
75913;BME280;64592;52.168;21.040;2023-02-21T12:06:34;99494.38;;;7.72;65.65
75913;BME280;64592;52.168;21.040;2023-02-21T12:11:57;99483.53;;;7.74;64.59
75913;BME280;64592;52.168;21.040;2023-02-21T12:17:13;99499.78;;;7.84;65.41
75913;BME280;64592;52.168;21.040;2023-02-21T12:22:31;99504.91;;;7.98;64.69
75913;BME280;64592;52.168;21.040;2023-02-21T12:27:41;99510.50;;;7.95;64.83
75913;BME280;64592;52.168;21.040;2023-02-21T12:32:50;99504.66;;;8.01;64.12
75913;BME280;64592;52.168;21.040;2023-02-21T12:37:57;99510.03;;;8.23;62.66
75913;BME280;64592;52.168;21.040;2023-02-21T12:43:19;99510.31;;;8.42;61.83
75913;BME280;64592;52.168;21.040;2023-02-21T12:48:30;99510.44;;;8.52;60.46
75913;BME280;64592;52.168;21.040;2023-02-21T12:53:38;99515.22;;;8.37;61.76
75913;BME280;64592;52.168;21.040;2023-02-21T12:58:46;99522.53;;;8.35;62.11
75913;BME280;64592;52.168;21.040;2023-02-21T13:03:55;99535.97;;;8.35;61.91
75913;BME280;64592;52.168;21.040;2023-02-21T13:09:07;99543.84;;;8.14;63.21
75913;BME280;64592;52.168;21.040;2023-02-21T13:14:15;99545.44;;;8.06;62.43
75913;BME280;64592;52.168;21.040;2023-02-21T13:19:20;99559.50;;;7.86;64.37
75913;BME280;64592;52.168;21.040;2023-02-21T13:24:40;99571.66;;;7.67;65.71
75913;BME280;64592;52.168;21.040;2023-02-21T13:29:46;99562.78;;;7.43;67.34
75913;BME280;64592;52.168;21.040;2023-02-21T13:34:59;99578.88;;;7.43;67.71
75913;BME280;64592;52.168;21.040;2023-02-21T13:40:05;99581.84;;;7.51;69.22
75913;BME280;64592;52.168;21.040;2023-02-21T13:45:15;99580.38;;;7.47;69.58
75913;BME280;64592;52.168;21.040;2023-02-21T13:50:44;99592.47;;;7.53;69.23
75913;BME280;64592;52.168;21.040;2023-02-21T13:56:12;99591.81;;;7.49;69.10
75913;BME280;64592;52.168;21.040;2023-02-21T14:01:38;99588.28;;;7.49;69.39
75913;BME280;64592;52.168;21.040;2023-02-21T14:06:54;99596.41;;;7.36;69.75
75913;BME280;64592;52.168;21.040;2023-02-21T14:12:01;99612.38;;;7.37;68.89
75913;BME280;64592;52.168;21.040;2023-02-21T14:17:05;99611.72;;;7.34;68.47
75913;BME280;64592;52.168;21.040;2023-02-21T14:22:12;99623.31;;;7.34;69.33
75913;BME280;64592;52.168;21.040;2023-02-21T14:27:33;99622.44;;;7.34;68.22
75913;BME280;64592;52.168;21.040;2023-02-21T14:32:37;99628.47;;;7.37;68.39
75913;BME280;64592;52.168;21.040;2023-02-21T14:37:50;99634.91;;;7.35;66.09
75913;BME280;64592;52.168;21.040;2023-02-21T14:43:14;99646.59;;;7.34;66.62
75913;BME280;64592;52.168;21.040;2023-02-21T14:48:53;99644.03;;;7.32;66.62
75913;BME280;64592;52.168;21.040;2023-02-21T14:54:20;99641.78;;;7.26;66.60
75913;BME280;64592;52.168;21.040;2023-02-21T14:59:42;99643.63;;;7.26;67.76
75913;BME280;64592;52.168;21.040;2023-02-21T15:04:53;99664.31;;;7.24;66.84
75913;BME280;64592;52.168;21.040;2023-02-21T15:10:22;99657.69;;;7.17;67.99
75913;BME280;64592;52.168;21.040;2023-02-21T15:15:27;99655.22;;;7.14;67.99
75913;BME280;64592;52.168;21.040;2023-02-21T15:20:30;99681.94;;;7.15;68.28
75913;BME280;64592;52.168;21.040;2023-02-21T15:25:34;99682.91;;;7.14;68.05
75913;BME280;64592;52.168;21.040;2023-02-21T15:30:38;99683.13;;;7.11;67.89
75913;BME280;64592;52.168;21.040;2023-02-21T15:35:43;99683.97;;;7.12;67.99
75913;BME280;64592;52.168;21.040;2023-02-21T15:40:49;99681.28;;;7.12;67.80
75913;BME280;64592;52.168;21.040;2023-02-21T15:45:52;99694.16;;;7.07;67.18
75913;BME280;64592;52.168;21.040;2023-02-21T15:51:00;99705.84;;;7.06;66.86
75913;BME280;64592;52.168;21.040;2023-02-21T15:56:21;99704.13;;;7.05;68.14
75913;BME280;64592;52.168;21.040;2023-02-21T16:01:23;99714.84;;;7.05;67.66
75913;BME280;64592;52.168;21.040;2023-02-21T16:06:25;99725.69;;;7.03;67.43
75913;BME280;64592;52.168;21.040;2023-02-21T16:11:41;99730.41;;;6.99;67.40
75913;BME280;64592;52.168;21.040;2023-02-21T16:16:44;99735.75;;;6.99;66.78
75913;BME280;64592;52.168;21.040;2023-02-21T16:21:47;99750.97;;;6.99;67.82
75913;BME280;64592;52.168;21.040;2023-02-21T16:27:02;99747.78;;;6.94;67.68
75913;BME280;64592;52.168;21.040;2023-02-21T16:32:04;99764.72;;;6.94;68.22
75913;BME280;64592;52.168;21.040;2023-02-21T16:37:11;99771.38;;;6.89;69.69
75913;BME280;64592;52.168;21.040;2023-02-21T16:42:15;99776.59;;;6.90;70.21
75913;BME280;64592;52.168;21.040;2023-02-21T16:47:17;99785.91;;;6.85;70.60
75913;BME280;64592;52.168;21.040;2023-02-21T16:52:19;99775.41;;;6.82;71.46
75913;BME280;64592;52.168;21.040;2023-02-21T16:57:22;99791.81;;;6.77;70.52
75913;BME280;64592;52.168;21.040;2023-02-21T17:02:24;99789.34;;;6.74;70.93
75913;BME280;64592;52.168;21.040;2023-02-21T17:07:25;99798.53;;;6.70;71.70
75913;BME280;64592;52.168;21.040;2023-02-21T17:12:29;99805.09;;;6.66;71.38
75913;BME280;64592;52.168;21.040;2023-02-21T17:17:31;99820.16;;;6.67;71.21
75913;BME280;64592;52.168;21.040;2023-02-21T17:22:33;99820.16;;;6.67;71.37
75913;BME280;64592;52.168;21.040;2023-02-21T17:27:36;99827.25;;;6.68;71.52
75913;BME280;64592;52.168;21.040;2023-02-21T17:32:38;99835.28;;;6.68;70.77
75913;BME280;64592;52.168;21.040;2023-02-21T17:37:40;99831.09;;;6.64;71.31
75913;BME280;64592;52.168;21.040;2023-02-21T17:42:43;99842.00;;;6.61;71.55
75913;BME280;64592;52.168;21.040;2023-02-21T17:47:46;99842.88;;;6.61;71.37
75913;BME280;64592;52.168;21.040;2023-02-21T17:52:48;99850.16;;;6.59;71.50
75913;BME280;64592;52.168;21.040;2023-02-21T17:57:51;99845.97;;;6.55;72.71
75913;BME280;64592;52.168;21.040;2023-02-21T18:02:54;99852.72;;;6.61;71.77
75913;BME280;64592;52.168;21.040;2023-02-21T18:07:56;99863.44;;;6.61;71.26
75913;BME280;64592;52.168;21.040;2023-02-21T18:12:59;99854.88;;;6.56;71.58
75913;BME280;64592;52.168;21.040;2023-02-21T18:18:01;99858.72;;;6.52;72.14
75913;BME280;64592;52.168;21.040;2023-02-21T18:23:04;99853.75;;;6.46;72.39
75913;BME280;64592;52.168;21.040;2023-02-21T18:28:08;99867.25;;;6.44;71.36
75913;BME280;64592;52.168;21.040;2023-02-21T18:33:10;99875.16;;;6.46;71.88
75913;BME280;64592;52.168;21.040;2023-02-21T18:38:12;99879.03;;;6.42;71.85
75913;BME280;64592;52.168;21.040;2023-02-21T18:43:18;99881.88;;;6.39;72.12
75913;BME280;64592;52.168;21.040;2023-02-21T18:48:21;99891.28;;;6.32;72.92
75913;BME280;64592;52.168;21.040;2023-02-21T18:53:24;99897.81;;;6.28;72.65
75913;BME280;64592;52.168;21.040;2023-02-21T18:58:27;99903.34;;;6.24;72.63
75913;BME280;64592;52.168;21.040;2023-02-21T19:03:28;99902.88;;;6.18;72.55
75913;BME280;64592;52.168;21.040;2023-02-21T19:08:30;99904.94;;;6.14;72.53
75913;BME280;64592;52.168;21.040;2023-02-21T19:13:33;99913.31;;;6.08;73.46
75913;BME280;64592;52.168;21.040;2023-02-21T19:18:35;99929.38;;;6.08;72.63
75913;BME280;64592;52.168;21.040;2023-02-21T19:23:37;99922.34;;;6.07;72.62
75913;BME280;64592;52.168;21.040;2023-02-21T19:28:40;99939.53;;;6.03;73.10
75913;BME280;64592;52.168;21.040;2023-02-21T19:33:42;99938.88;;;6.00;73.30
75913;BME280;64592;52.168;21.040;2023-02-21T19:38:44;99938.97;;;5.98;73.49
75913;BME280;64592;52.168;21.040;2023-02-21T19:43:47;99945.56;;;5.93;73.47
75913;BME280;64592;52.168;21.040;2023-02-21T19:48:50;99945.03;;;5.86;73.50
75913;BME280;64592;52.168;21.040;2023-02-21T19:53:53;99964.75;;;5.85;73.32
75913;BME280;64592;52.168;21.040;2023-02-21T19:58:56;99962.16;;;5.83;73.67
75913;BME280;64592;52.168;21.040;2023-02-21T20:03:59;99967.03;;;5.77;73.65
75913;BME280;64592;52.168;21.040;2023-02-21T20:09:02;99969.78;;;5.75;73.47
75913;BME280;64592;52.168;21.040;2023-02-21T20:14:05;99973.88;;;5.67;74.39
75913;BME280;64592;52.168;21.040;2023-02-21T20:19:08;99983.81;;;5.65;73.66
75913;BME280;64592;52.168;21.040;2023-02-21T20:24:10;99994.50;;;5.65;73.89
75913;BME280;64592;52.168;21.040;2023-02-21T20:29:14;99992.69;;;5.65;73.12
75913;BME280;64592;52.168;21.040;2023-02-21T20:34:16;100003.47;;;5.64;73.66
75913;BME280;64592;52.168;21.040;2023-02-21T20:39:19;100002.53;;;5.65;73.88
75913;BME280;64592;52.168;21.040;2023-02-21T20:44:24;100007.38;;;5.58;74.18
75913;BME280;64592;52.168;21.040;2023-02-21T20:49:26;100010.06;;;5.58;74.60
75913;BME280;64592;52.168;21.040;2023-02-21T20:54:27;100024.50;;;5.56;74.66
75913;BME280;64592;52.168;21.040;2023-02-21T20:59:32;100032.50;;;5.56;73.85
75913;BME280;64592;52.168;21.040;2023-02-21T21:04:37;100035.28;;;5.54;74.45
75913;BME280;64592;52.168;21.040;2023-02-21T21:09:40;100043.22;;;5.56;74.19
75913;BME280;64592;52.168;21.040;2023-02-21T21:14:46;100051.97;;;5.58;75.07
75913;BME280;64592;52.168;21.040;2023-02-21T21:19:49;100065.41;;;5.56;74.88
75913;BME280;64592;52.168;21.040;2023-02-21T21:24:52;100075.63;;;5.50;76.49
75913;BME280;64592;52.168;21.040;2023-02-21T21:29:55;100081.34;;;5.43;79.69
75913;BME280;64592;52.168;21.040;2023-02-21T21:34:57;100085.41;;;5.35;78.97
75913;BME280;64592;52.168;21.040;2023-02-21T21:40:03;100093.97;;;5.26;80.06
75913;BME280;64592;52.168;21.040;2023-02-21T21:45:18;100105.69;;;5.23;80.80
75913;BME280;64592;52.168;21.040;2023-02-21T21:50:21;100088.97;;;5.04;81.69
75913;BME280;64592;52.168;21.040;2023-02-21T21:55:25;100101.75;;;4.99;82.22
75913;BME280;64592;52.168;21.040;2023-02-21T22:00:29;100106.41;;;4.95;80.73
75913;BME280;64592;52.168;21.040;2023-02-21T22:05:39;100114.31;;;4.97;80.36
75913;BME280;64592;52.168;21.040;2023-02-21T22:10:42;100112.78;;;4.93;79.89
75913;BME280;64592;52.168;21.040;2023-02-21T22:15:46;100113.13;;;4.87;80.98
75913;BME280;64592;52.168;21.040;2023-02-21T22:20:49;100127.59;;;4.83;81.02
75913;BME280;64592;52.168;21.040;2023-02-21T22:25:50;100130.88;;;4.88;80.87
75913;BME280;64592;52.168;21.040;2023-02-21T22:30:54;100136.38;;;4.85;81.33
75913;BME280;64592;52.168;21.040;2023-02-21T22:35:55;100137.59;;;4.79;81.77
75913;BME280;64592;52.168;21.040;2023-02-21T22:40:57;100159.63;;;4.83;80.99
75913;BME280;64592;52.168;21.040;2023-02-21T22:46:00;100148.94;;;4.83;81.63
75913;BME280;64592;52.168;21.040;2023-02-21T22:51:05;100159.81;;;4.80;81.68
75913;BME280;64592;52.168;21.040;2023-02-21T22:56:11;100157.91;;;4.82;81.08
75913;BME280;64592;52.168;21.040;2023-02-21T23:01:15;100152.75;;;4.79;81.00
75913;BME280;64592;52.168;21.040;2023-02-21T23:06:20;100168.78;;;4.79;80.55
75913;BME280;64592;52.168;21.040;2023-02-21T23:11:22;100174.09;;;4.79;80.84
75913;BME280;64592;52.168;21.040;2023-02-21T23:16:25;100185.81;;;4.76;81.13
75913;BME280;64592;52.168;21.040;2023-02-21T23:21:27;100190.47;;;4.73;81.24
75913;BME280;64592;52.168;21.040;2023-02-21T23:26:29;100190.53;;;4.71;80.68
75913;BME280;64592;52.168;21.040;2023-02-21T23:31:32;100202.25;;;4.68;80.75
75913;BME280;64592;52.168;21.040;2023-02-21T23:36:34;100211.28;;;4.66;80.58
75913;BME280;64592;52.168;21.040;2023-02-21T23:41:38;100217.66;;;4.63;80.04
75913;BME280;64592;52.168;21.040;2023-02-21T23:46:43;100221.50;;;4.58;80.29
75913;BME280;64592;52.168;21.040;2023-02-21T23:51:45;100228.75;;;4.56;79.96
75913;BME280;64592;52.168;21.040;2023-02-21T23:56:47;100233.34;;;4.52;80.05
